Brooklyn Center, Minnesota
Current Conditions -  °F | °C
As of 6:53 PM on Tuesday 25 Nov 2014 (Local Time) from KMIC Reporting Station
Overcast Overcast  
Wind Chill: 16°   Ceiling: 6000
Heat Index: 25°   Visibility: 10mi
Dew Point: 15°   Wind: 8mph
Humidity: 66%   Direction: 150°SSE
Pressure: 30"   Gusts: NA
Location:  45.07°N, 93.31°W
Report Text: KMIC 260053Z 15007KT 10SM OVC060 M04/M09 A3000 RMK AO2 SLP176 T10391094
Loading
Personal Weather Stations






























Interactive Weather Map New forecast layout! Learn more

10-Day Weather Forecast

Advertisements
Track Severe Weather on mobile